Terminal Aerodrome Forecast
Issued by NWS Northern Indiana

Home | Current Version | Previous Version | Text Only | Print | Product List | Glossary On
Versions: 1 2 3 4 5 6 7 8 9 10 11 12
000
FTUS43 KIWX 051135
TAFFWA
TAF
KFWA 051135Z 0512/0612 VRB03KT 5SM BR HZ BKN250
      TEMPO 0512/0513 2SM BR
     FM051400 15005KT P6SM SCT040 BKN250
     FM060300 20003KT P6SM SKC=

USA.gov is the U.S. government's official web portal to all federal, state and local government web resources and services.